createdAt,value
2018-04-19T00:01:38.784Z,11.40
2018-04-19T00:04:04.963Z,12.33
2018-04-19T00:06:31.045Z,10.30
2018-04-19T00:08:57.134Z,12.20
2018-04-19T00:11:23.957Z,10.97
2018-04-19T00:13:50.032Z,11.00
2018-04-19T00:16:16.179Z,11.70
2018-04-19T00:18:42.252Z,12.30
2018-04-19T00:21:08.365Z,11.93
2018-04-19T00:23:34.679Z,12.20
2018-04-19T00:26:00.761Z,12.40
2018-04-19T00:28:26.798Z,11.10
2018-04-19T00:30:52.909Z,12.57
2018-04-19T00:33:18.975Z,11.87
2018-04-19T00:35:45.052Z,12.63
2018-04-19T00:38:11.153Z,12.90
2018-04-19T00:40:37.296Z,13.20
2018-04-19T00:43:03.365Z,12.37
2018-04-19T00:45:29.428Z,12.50
2018-04-19T00:47:55.692Z,12.70
2018-04-19T00:50:21.901Z,13.00
2018-04-19T00:53:00.252Z,12.53
2018-04-19T00:55:27.023Z,12.83
2018-04-19T00:57:53.160Z,13.47
2018-04-19T01:00:19.199Z,12.77
2018-04-19T01:02:45.270Z,13.47
2018-04-19T01:05:11.348Z,12.87
2018-04-19T01:07:37.440Z,13.37
2018-04-19T01:10:03.535Z,13.33
2018-04-19T01:12:29.604Z,12.67
2018-04-19T01:14:55.836Z,13.23
2018-04-19T01:17:21.909Z,13.50
2018-04-19T01:19:48.027Z,13.17
2018-04-19T01:22:14.140Z,13.93
2018-04-19T01:24:40.948Z,13.53
2018-04-19T01:27:07.096Z,14.03
2018-04-19T01:29:33.194Z,14.20
2018-04-19T01:31:59.253Z,14.37
2018-04-19T01:34:25.959Z,15.03
2018-04-19T01:36:52.237Z,14.87
2018-04-19T01:39:18.277Z,14.73
2018-04-19T01:41:44.313Z,15.00
2018-04-19T01:44:10.391Z,14.97
2018-04-19T01:46:36.493Z,15.10
2018-04-19T01:49:02.678Z,15.60
2018-04-19T01:51:29.521Z,14.77
2018-04-19T01:53:55.593Z,15.50
2018-04-19T01:56:22.475Z,16.10
2018-04-19T01:58:48.666Z,17.63
2018-04-19T02:01:14.732Z,16.43
2018-04-19T02:03:41.529Z,17.53
2018-04-19T02:06:07.575Z,16.73
2018-04-19T02:08:33.645Z,16.40
2018-04-19T02:10:59.686Z,18.27
2018-04-19T02:13:26.480Z,17.67
2018-04-19T02:15:52.628Z,16.83
2018-04-19T02:18:18.696Z,16.80
2018-04-19T02:20:44.770Z,16.77
2018-04-19T02:23:10.853Z,15.53
2018-04-19T02:25:36.938Z,16.87
2018-04-19T02:28:03.048Z,16.33
2018-04-19T02:30:29.101Z,16.50
2018-04-19T02:32:55.881Z,17.27
2018-04-19T02:35:22.068Z,16.20
2018-04-19T02:37:48.163Z,16.33
2018-04-19T02:40:14.258Z,16.43
2018-04-19T02:42:40.564Z,17.50
2018-04-19T02:45:06.691Z,16.40
2018-04-19T02:47:32.830Z,15.57
2018-04-19T02:49:59.049Z,17.33
2018-04-19T02:52:25.886Z,16.40
2018-04-19T02:54:52.017Z,17.80
2018-04-19T02:57:18.132Z,16.00
2018-04-19T02:59:44.186Z,17.73
2018-04-19T03:02:10.290Z,16.03
2018-04-19T03:04:36.378Z,17.03
2018-04-19T03:07:02.504Z,18.70
2018-04-19T03:09:28.565Z,18.00
2018-04-19T03:11:55.403Z,16.17
2018-04-19T03:14:21.479Z,16.83
2018-04-19T03:16:47.550Z,18.30
2018-04-19T03:19:13.648Z,17.67
2018-04-19T03:21:39.749Z,17.43
2018-04-19T03:24:05.905Z,17.10
2018-04-19T03:26:31.957Z,17.13
2018-04-19T03:28:58.835Z,17.10
2018-04-19T03:31:24.838Z,18.07
2018-04-19T03:33:51.298Z,17.97
2018-04-19T03:36:17.382Z,17.87
2018-04-19T03:38:43.464Z,16.00
2018-04-19T03:41:09.580Z,16.00
2018-04-19T03:43:35.760Z,17.00
2018-04-19T03:46:02.589Z,15.07
2018-04-19T03:48:29.012Z,15.17
2018-04-19T03:50:55.069Z,15.23
2018-04-19T03:53:21.381Z,14.77
2018-04-19T03:55:47.468Z,15.47
2018-04-19T03:58:14.260Z,16.33
2018-04-19T04:00:40.367Z,16.63
2018-04-19T04:03:06.572Z,15.27
2018-04-19T04:05:32.825Z,15.57
2018-04-19T04:07:58.906Z,16.33
2018-04-19T04:10:24.962Z,15.53
2018-04-19T04:12:51.045Z,14.67
2018-04-19T04:15:17.148Z,14.90
2018-04-19T04:17:55.494Z,14.60
2018-04-19T04:20:33.688Z,16.87
2018-04-19T04:23:25.796Z,15.90
2018-04-19T04:25:51.926Z,15.90
2018-04-19T04:28:18.050Z,15.50
2018-04-19T04:30:44.146Z,15.03
2018-04-19T04:33:10.989Z,16.73
2018-04-19T04:35:37.134Z,15.37
2018-04-19T04:38:03.341Z,15.87
2018-04-19T04:40:30.242Z,14.50
2018-04-19T04:42:56.331Z,15.67
2018-04-19T04:45:22.536Z,16.90
2018-04-19T04:47:48.640Z,16.67
2018-04-19T04:50:15.421Z,16.90
2018-04-19T04:52:41.449Z,15.90
2018-04-19T04:55:07.579Z,15.10
2018-04-19T04:57:33.676Z,16.93
2018-04-19T04:59:59.702Z,16.50
2018-04-19T05:02:25.754Z,17.00
2018-04-19T05:04:51.897Z,17.07
2018-04-19T05:07:17.977Z,16.77
2018-04-19T05:09:44.021Z,16.80
2018-04-19T05:12:10.150Z,17.00
2018-04-19T05:14:36.267Z,18.17
2018-04-19T05:17:02.403Z,18.70
2018-04-19T05:19:28.488Z,18.10
2018-04-19T05:21:54.547Z,18.23
2018-04-19T05:24:20.651Z,17.90
2018-04-19T05:26:46.763Z,17.40
2018-04-19T05:29:12.818Z,20.00
2018-04-19T05:31:38.993Z,18.20
2018-04-19T05:34:05.060Z,18.80
2018-04-19T05:36:31.872Z,17.33
2018-04-19T05:38:57.973Z,17.97
2018-04-19T05:41:24.050Z,18.20
2018-04-19T05:43:50.116Z,16.40
2018-04-19T05:46:16.273Z,15.73
2018-04-19T05:48:43.082Z,15.93
2018-04-19T05:51:09.347Z,13.80
2018-04-19T05:53:35.708Z,14.50
2018-04-19T05:56:01.869Z,14.80
2018-04-19T05:58:27.957Z,14.20
2018-04-19T06:00:55.101Z,16.73
2018-04-19T06:03:21.365Z,15.83
2018-04-19T06:05:47.609Z,14.90
2018-04-19T06:08:13.736Z,14.40
2018-04-19T06:10:39.795Z,13.90
2018-04-19T06:13:06.644Z,15.70
2018-04-19T06:15:33.641Z,14.30
2018-04-19T06:17:59.708Z,13.87
2018-04-19T06:20:26.089Z,14.10
2018-04-19T06:22:52.217Z,16.20
2018-04-19T06:25:18.382Z,14.07
2018-04-19T06:27:44.480Z,15.20
2018-04-19T06:30:10.620Z,14.63
2018-04-19T06:32:36.804Z,13.07
2018-04-19T06:35:03.681Z,12.90
2018-04-19T06:37:31.821Z,13.20
2018-04-19T06:39:57.968Z,13.03
2018-04-19T06:42:24.120Z,14.10
2018-04-19T06:44:50.474Z,13.40
2018-04-19T06:47:16.662Z,14.33
2018-04-19T06:49:42.787Z,13.20
2018-04-19T06:52:08.845Z,14.07
2018-04-19T06:54:35.073Z,13.90
2018-04-19T06:57:01.254Z,13.57
2018-04-19T06:59:27.348Z,11.83
2018-04-19T07:01:53.434Z,12.83
2018-04-19T07:04:19.596Z,13.13
2018-04-19T07:06:45.702Z,14.30
2018-04-19T07:09:11.875Z,13.40
2018-04-19T07:11:37.974Z,13.13
2018-04-19T07:14:04.141Z,14.03
2018-04-19T07:16:31.098Z,14.53
2018-04-19T07:18:58.033Z,14.37
2018-04-19T07:21:24.170Z,15.27
2018-04-19T07:23:50.393Z,13.97
2018-04-19T07:26:16.559Z,14.80
2018-04-19T07:28:42.729Z,14.30
2018-04-19T07:31:08.868Z,14.80
2018-04-19T07:33:35.154Z,15.73
2018-04-19T07:36:01.217Z,14.40
2018-04-19T07:38:27.350Z,13.23
2018-04-19T07:40:53.428Z,13.60
2018-04-19T07:43:19.600Z,14.70
2018-04-19T07:45:45.726Z,15.13
2018-04-19T07:48:11.809Z,15.30
2018-04-19T07:50:37.984Z,16.23
2018-04-19T07:53:04.579Z,15.57
2018-04-19T07:55:30.638Z,16.00
2018-04-19T07:57:57.646Z,17.95
2018-04-19T08:00:23.761Z,16.10
2018-04-19T08:02:49.858Z,16.40
2018-04-19T08:05:15.972Z,15.93
2018-04-19T08:07:42.196Z,15.00
2018-04-19T08:10:08.326Z,16.33
2018-04-19T08:12:35.162Z,17.58
2018-04-19T08:15:01.284Z,16.55
2018-04-19T08:17:27.412Z,17.10
2018-04-19T08:19:53.516Z,17.77
2018-04-19T08:22:19.660Z,17.10
2018-04-19T08:24:45.763Z,16.55
2018-04-19T08:27:11.894Z,18.58
2018-04-19T08:29:37.995Z,17.70
2018-04-19T08:32:04.379Z,17.85
2018-04-19T08:34:31.413Z,16.40
2018-04-19T08:36:57.596Z,16.55
2018-04-19T08:39:23.726Z,15.83
2018-04-19T08:41:49.823Z,14.93
2018-04-19T08:44:15.954Z,15.80
2018-04-19T08:46:42.053Z,15.90
2018-04-19T08:49:08.143Z,14.80
2018-04-19T08:51:34.622Z,17.40
2018-04-19T08:54:00.735Z,15.23
2018-04-19T08:56:27.135Z,15.60
2018-04-19T08:58:53.187Z,19.57
2018-04-19T09:01:19.277Z,16.50
2018-04-19T09:03:46.205Z,15.60
2018-04-19T09:06:12.277Z,15.83
2018-04-19T09:08:38.403Z,15.37
2018-04-19T09:11:04.550Z,16.13
2018-04-19T09:13:30.711Z,15.23
2018-04-19T09:15:56.789Z,15.20
2018-04-19T09:18:22.941Z,14.80
2018-04-19T09:20:49.100Z,15.57
2018-04-19T09:23:15.968Z,16.23
2018-04-19T09:25:42.066Z,15.10
2018-04-19T09:28:08.322Z,15.80
2018-04-19T09:30:34.446Z,14.00
2018-04-19T09:33:00.674Z,14.83
2018-04-19T09:35:26.870Z,16.25
2018-04-19T09:37:52.967Z,14.67
2018-04-19T09:40:19.266Z,14.60
2018-04-19T09:42:45.393Z,14.67
2018-04-19T09:45:11.536Z,15.10
2018-04-19T09:47:37.986Z,15.87
2018-04-19T09:50:04.251Z,15.63
2018-04-19T09:52:30.425Z,16.07
2018-04-19T09:54:56.607Z,15.50
2018-04-19T09:57:22.713Z,16.40
2018-04-19T09:59:48.919Z,16.80
2018-04-19T10:02:15.128Z,15.47
2018-04-19T10:04:41.445Z,15.53
2018-04-19T10:07:08.512Z,16.10
2018-04-19T10:09:34.657Z,16.77
2018-04-19T10:12:00.826Z,15.53
2018-04-19T10:14:26.969Z,16.27
2018-04-19T10:16:53.115Z,15.57
2018-04-19T10:19:19.330Z,17.70
2018-04-19T10:21:45.455Z,16.33
2018-04-19T10:24:11.546Z,18.10
2018-04-19T10:26:38.427Z,17.40
2018-04-19T10:29:04.529Z,15.63
2018-04-19T10:31:32.400Z,18.80
2018-04-19T10:33:58.520Z,17.20
2018-04-19T10:36:24.697Z,18.53
2018-04-19T10:38:52.236Z,19.00
2018-04-19T10:41:18.676Z,17.20
2018-04-19T10:43:44.794Z,17.67
2018-04-19T10:46:10.927Z,16.53
2018-04-19T10:48:37.108Z,16.97
2018-04-19T10:51:03.302Z,17.40
2018-04-19T10:53:29.388Z,18.60
2018-04-19T10:55:55.544Z,18.47
2018-04-19T10:58:22.488Z,18.67
2018-04-19T11:00:49.072Z,19.27
2018-04-19T11:03:15.433Z,19.67
2018-04-19T11:05:41.551Z,18.97
2018-04-19T11:08:07.748Z,19.77
2018-04-19T11:10:33.996Z,18.23
2018-04-19T11:13:00.166Z,18.87
2018-04-19T11:15:26.291Z,18.33
2018-04-19T11:17:53.294Z,16.60
2018-04-19T11:20:19.485Z,15.60
2018-04-19T11:22:45.768Z,15.10
2018-04-19T11:25:11.847Z,14.33
2018-04-19T11:27:38.003Z,13.17
2018-04-19T11:30:04.165Z,13.43
2018-04-19T11:32:30.303Z,12.70
2018-04-19T11:34:57.134Z,12.27
2018-04-19T11:37:23.483Z,11.67
2018-04-19T11:39:49.858Z,11.35
2018-04-19T11:42:15.974Z,11.73
2018-04-19T11:44:42.142Z,12.43
2018-04-19T11:47:08.838Z,11.65
2018-04-19T11:49:34.965Z,11.73
2018-04-19T11:52:01.220Z,10.65
2018-04-19T11:54:27.351Z,11.38
2018-04-19T11:56:55.123Z,10.95
2018-04-19T11:59:22.386Z,9.77
2018-04-19T12:01:48.754Z,10.45
2018-04-19T12:04:14.854Z,10.25
2018-04-19T12:06:40.954Z,10.38
2018-04-19T12:09:07.309Z,9.38
2018-04-19T12:11:33.390Z,10.85
2018-04-19T12:13:59.637Z,10.20
2018-04-19T12:16:25.749Z,10.45
2018-04-19T12:18:52.823Z,10.32
2018-04-19T12:21:19.083Z,9.93
2018-04-19T12:23:45.406Z,9.82
2018-04-19T12:26:11.504Z,8.80
2018-04-19T12:28:37.659Z,8.55
2018-04-19T12:31:04.476Z,8.45
2018-04-19T12:33:30.605Z,7.65
2018-04-19T12:35:56.717Z,9.93
2018-04-19T12:38:23.872Z,7.82
2018-04-19T12:40:50.004Z,8.02
2018-04-19T12:43:16.116Z,8.10
2018-04-19T12:45:43.038Z,7.25
2018-04-19T12:48:09.199Z,7.37
2018-04-19T12:50:35.337Z,8.10
2018-04-19T12:53:01.483Z,8.07
2018-04-19T12:55:27.676Z,7.47
2018-04-19T12:57:53.801Z,7.10
2018-04-19T13:00:20.022Z,7.40
2018-04-19T13:02:46.155Z,8.18
2018-04-19T13:05:12.285Z,8.43
2018-04-19T13:07:38.509Z,7.47
2018-04-19T13:10:04.589Z,8.18
2018-04-19T13:12:31.476Z,7.12
2018-04-19T13:14:57.581Z,7.28
2018-04-19T13:17:24.426Z,6.75
2018-04-19T13:19:50.593Z,7.07
2018-04-19T13:22:16.718Z,6.45
2018-04-19T13:24:42.873Z,5.40
2018-04-19T13:27:08.931Z,7.32
2018-04-19T13:29:35.053Z,6.15
2018-04-19T13:32:01.306Z,5.80
2018-04-19T13:34:27.431Z,6.95
2018-04-19T13:36:53.590Z,6.18
2018-04-19T13:39:19.987Z,5.95
2018-04-19T13:41:46.120Z,5.03
2018-04-19T13:44:12.342Z,4.95
2018-04-19T13:46:38.549Z,5.18
2018-04-19T13:49:05.754Z,4.80
2018-04-19T13:51:31.946Z,5.05
2018-04-19T13:53:58.075Z,4.30
2018-04-19T13:56:24.218Z,4.53
2018-04-19T13:58:50.428Z,3.95
2018-04-19T14:01:16.570Z,4.72
2018-04-19T14:03:42.699Z,4.40
2018-04-19T14:06:10.313Z,4.47
2018-04-19T14:08:36.444Z,5.53
2018-04-19T14:11:02.518Z,5.80
2018-04-19T14:13:28.545Z,4.32
2018-04-19T14:15:54.777Z,4.32
2018-04-19T14:18:21.346Z,4.53
2018-04-19T14:20:47.535Z,4.45
2018-04-19T14:23:13.709Z,5.20
2018-04-19T14:25:39.785Z,4.57
2018-04-19T14:28:05.958Z,4.80
2018-04-19T14:30:32.147Z,4.85
2018-04-19T14:32:58.363Z,5.18
2018-04-19T14:35:24.489Z,4.47
2018-04-19T14:37:50.578Z,4.57
2018-04-19T14:40:17.130Z,4.43
2018-04-19T14:42:43.275Z,4.68
2018-04-19T14:45:09.367Z,4.93
2018-04-19T14:47:35.435Z,4.28
2018-04-19T14:50:01.656Z,4.75
2018-04-19T14:52:27.722Z,5.10
2018-04-19T14:54:53.768Z,4.85
2018-04-19T14:57:19.991Z,4.55
2018-04-19T14:59:46.099Z,4.62
2018-04-19T15:02:12.197Z,4.60
2018-04-19T15:04:38.401Z,4.30
2018-04-19T15:07:04.687Z,4.75
2018-04-19T15:09:30.966Z,3.62
2018-04-19T15:11:57.384Z,4.50
2018-04-19T15:14:23.525Z,3.92
2018-04-19T15:16:49.730Z,4.32
2018-04-19T15:19:15.868Z,4.00
2018-04-19T15:21:42.009Z,3.90
2018-04-19T15:24:08.131Z,4.37
2018-04-19T15:26:34.250Z,3.75
2018-04-19T15:29:00.385Z,3.80
2018-04-19T15:31:26.495Z,4.45
2018-04-19T15:33:52.620Z,4.22
2018-04-19T15:36:18.866Z,4.35
2018-04-19T15:38:44.974Z,5.10
2018-04-19T15:41:11.123Z,3.97
2018-04-19T15:43:37.338Z,4.10
2018-04-19T15:46:12.103Z,4.03
2018-04-19T15:48:38.197Z,3.95
2018-04-19T15:51:04.510Z,4.05
2018-04-19T15:53:31.353Z,4.10
2018-04-19T15:55:57.457Z,3.95
2018-04-19T15:58:23.867Z,4.53
2018-04-19T16:00:50.059Z,4.40
2018-04-19T16:03:16.149Z,4.18
2018-04-19T16:05:42.475Z,4.62
2018-04-19T16:08:08.681Z,4.12
2018-04-19T16:10:34.823Z,4.05
2018-04-19T16:13:01.054Z,4.87
2018-04-19T16:15:27.176Z,5.07
2018-04-19T16:17:53.207Z,4.40
2018-04-19T16:20:19.317Z,5.22
2018-04-19T16:22:46.314Z,5.18
2018-04-19T16:25:12.502Z,5.30
2018-04-19T16:27:38.575Z,4.45
2018-04-19T16:30:04.755Z,5.22
2018-04-19T16:32:30.876Z,4.80
2018-04-19T16:34:57.062Z,4.10
2018-04-19T16:37:24.049Z,4.90
2018-04-19T16:39:50.177Z,4.80
2018-04-19T16:42:16.641Z,5.12
2018-04-19T16:44:42.742Z,5.40
2018-04-19T16:47:08.813Z,5.50
2018-04-19T16:49:35.091Z,5.60
2018-04-19T16:52:01.292Z,8.13
2018-04-19T16:54:27.414Z,4.80
2018-04-19T16:56:53.668Z,5.82
2018-04-19T16:59:19.760Z,5.87
2018-04-19T17:01:45.985Z,9.73
2018-04-19T17:04:12.489Z,8.98
2018-04-19T17:06:38.630Z,6.70
2018-04-19T17:09:05.551Z,6.63
2018-04-19T17:11:31.778Z,7.20
2018-04-19T17:13:57.853Z,6.67
2018-04-19T17:16:23.896Z,6.60
2018-04-19T17:18:50.091Z,6.70
2018-04-19T17:21:16.254Z,7.10
2018-04-19T17:23:42.395Z,7.00
2018-04-19T17:26:08.472Z,9.43
2018-04-19T17:28:35.370Z,6.27
2018-04-19T17:31:01.468Z,6.87
2018-04-19T17:33:27.559Z,6.87
2018-04-19T17:35:53.778Z,5.70
2018-04-19T17:38:20.006Z,6.50
2018-04-19T17:40:46.136Z,5.13
2018-04-19T17:43:12.532Z,6.27
2018-04-19T17:45:38.586Z,6.30
2018-04-19T17:48:04.677Z,7.00
2018-04-19T17:50:30.999Z,9.53
2018-04-19T17:52:57.118Z,7.07
2018-04-19T17:55:23.202Z,6.37
2018-04-19T17:57:49.305Z,6.03
2018-04-19T18:00:15.383Z,6.27
2018-04-19T18:02:41.512Z,7.47
2018-04-19T18:05:07.634Z,7.53
2018-04-19T18:07:33.717Z,7.53
2018-04-19T18:09:59.860Z,7.07
2018-04-19T18:12:25.893Z,6.90
2018-04-19T18:14:52.029Z,7.17
2018-04-19T18:17:18.180Z,7.27
2018-04-19T18:19:44.302Z,7.70
2018-04-19T18:22:10.420Z,7.10
2018-04-19T18:24:36.714Z,6.97
2018-04-19T18:27:02.979Z,7.70
2018-04-19T18:29:29.801Z,9.23
2018-04-19T18:31:56.000Z,7.67
2018-04-19T18:34:22.090Z,8.60
2018-04-19T18:36:49.126Z,8.53
2018-04-19T18:39:15.286Z,8.20
2018-04-19T18:41:41.421Z,25.50
2018-04-19T18:44:07.502Z,7.70
2018-04-19T18:46:33.700Z,9.67
2018-04-19T18:48:59.766Z,8.27
2018-04-19T18:51:25.866Z,9.20
2018-04-19T18:53:52.170Z,9.07
2018-04-19T18:56:18.555Z,9.37
2018-04-19T18:58:44.663Z,7.57
2018-04-19T19:01:11.058Z,8.50
2018-04-19T19:03:37.334Z,8.50
2018-04-19T19:06:03.517Z,8.70
2018-04-19T19:08:29.710Z,8.70
2018-04-19T19:10:56.117Z,9.27
2018-04-19T19:13:22.370Z,14.80
2018-04-19T19:19:06.281Z,10.37
2018-04-19T19:21:32.392Z,9.30
2018-04-19T19:23:58.839Z,8.70
2018-04-19T19:26:24.978Z,9.43
2018-04-19T19:28:51.148Z,8.67
2018-04-19T19:31:17.539Z,10.00
2018-04-19T19:33:43.654Z,9.90
2018-04-19T19:36:09.746Z,9.60
2018-04-19T19:38:35.878Z,8.77
2018-04-19T19:41:01.976Z,10.67
2018-04-19T19:43:28.037Z,10.17
2018-04-19T19:45:54.388Z,14.63
2018-04-19T19:48:20.803Z,9.37
2018-04-19T19:50:47.075Z,12.33
2018-04-19T19:53:13.157Z,10.20
2018-04-19T19:55:39.189Z,10.02
2018-04-19T19:58:05.404Z,9.47
2018-04-19T20:00:31.663Z,10.90
2018-04-19T20:03:59.118Z,11.18
2018-04-19T20:06:25.229Z,11.12
2018-04-19T20:08:51.660Z,11.05
2018-04-19T20:11:17.784Z,10.00
2018-04-19T20:13:43.966Z,10.18
2018-04-19T20:16:10.027Z,11.83
2018-04-19T20:18:36.245Z,10.77
2018-04-19T20:21:02.280Z,10.80
2018-04-19T20:23:28.381Z,11.00
2018-04-19T20:25:54.439Z,11.07
2018-04-19T20:28:21.496Z,10.80
2018-04-19T20:32:27.870Z,10.10
2018-04-19T20:34:53.990Z,10.63
2018-04-19T20:37:21.303Z,10.32
2018-04-19T20:39:47.412Z,10.00
2018-04-19T20:42:13.484Z,11.15
2018-04-19T20:44:39.558Z,10.33
2018-04-19T20:47:05.847Z,10.40
2018-04-19T20:49:32.682Z,9.90
2018-04-19T20:51:58.701Z,11.00
2018-04-19T20:54:24.748Z,11.02
2018-04-19T20:56:50.879Z,10.48
2018-04-19T20:59:16.950Z,10.77
2018-04-19T21:01:43.364Z,10.10
2018-04-19T21:04:09.618Z,9.50
2018-04-19T21:06:36.065Z,10.80
2018-04-19T21:09:02.706Z,10.48
2018-04-19T21:11:28.926Z,9.75
2018-04-19T21:13:55.434Z,10.60
2018-04-19T21:16:21.733Z,10.40
2018-04-19T21:18:47.859Z,10.50
2018-04-19T21:21:13.955Z,10.23
2018-04-19T21:23:40.127Z,11.32
2018-04-19T21:26:06.440Z,10.47
2018-04-19T21:28:32.543Z,11.85
2018-04-19T21:30:58.686Z,12.20
2018-04-19T21:33:24.792Z,10.97
2018-04-19T21:35:51.034Z,11.10
2018-04-19T21:38:17.164Z,9.40
2018-04-19T21:40:43.204Z,9.43
2018-04-19T21:43:09.269Z,10.17
2018-04-19T21:45:35.441Z,9.70
2018-04-19T21:48:01.509Z,10.37
2018-04-19T21:50:27.598Z,10.60
2018-04-19T21:52:53.982Z,8.50
2018-04-19T21:55:20.142Z,12.40
2018-04-19T21:57:46.235Z,10.20
2018-04-19T22:00:12.360Z,9.50
2018-04-19T22:02:38.504Z,9.87
2018-04-19T22:05:04.706Z,10.50
2018-04-19T22:07:30.778Z,9.97
2018-04-19T22:09:57.841Z,10.33
2018-04-19T22:12:23.951Z,9.97
2018-04-19T22:14:50.070Z,10.70
2018-04-19T22:17:16.211Z,10.90
2018-04-19T22:19:42.318Z,10.33
2018-04-19T22:22:09.131Z,10.00
2018-04-19T22:24:35.299Z,10.37
2018-04-19T22:27:02.155Z,10.17
2018-04-19T22:29:28.985Z,10.50
2018-04-19T22:31:55.054Z,10.03
2018-04-19T22:34:21.324Z,12.27
2018-04-19T22:36:47.422Z,12.17
2018-04-19T22:39:13.494Z,11.30
2018-04-19T22:41:39.671Z,11.40
2018-04-19T22:44:05.906Z,10.67
2018-04-19T22:46:32.076Z,11.43
2018-04-19T22:48:58.451Z,11.70
2018-04-19T22:51:24.630Z,16.30
2018-04-19T22:53:50.847Z,11.80
2018-04-19T22:56:16.957Z,12.50
2018-04-19T22:58:43.054Z,11.93
2018-04-19T23:01:09.177Z,13.27
2018-04-19T23:03:35.402Z,12.00
2018-04-19T23:06:01.633Z,11.97
2018-04-19T23:08:27.784Z,12.27
2018-04-19T23:10:53.876Z,11.80
2018-04-19T23:13:20.053Z,11.20
2018-04-19T23:15:46.904Z,12.70
2018-04-19T23:18:13.027Z,13.73
2018-04-19T23:20:39.219Z,14.00
2018-04-19T23:23:05.329Z,12.43
2018-04-19T23:25:31.530Z,12.50
2018-04-19T23:27:57.611Z,12.50
2018-04-19T23:30:23.706Z,12.63
2018-04-19T23:32:49.893Z,11.37
2018-04-19T23:35:16.109Z,13.53
2018-04-19T23:37:42.280Z,13.07
2018-04-19T23:40:08.337Z,14.53
2018-04-19T23:42:34.447Z,13.57
2018-04-19T23:45:00.532Z,13.67
2018-04-19T23:47:27.350Z,12.60
2018-04-19T23:49:53.534Z,12.57
2018-04-19T23:52:19.659Z,12.57
2018-04-19T23:54:45.744Z,13.63
2018-04-19T23:57:11.862Z,13.70
2018-04-19T23:59:38.910Z,13.90
